Alta Sierra, California
Current Conditions -  °F | °C
As of 4:00 PM on Friday 19 Dec 2014 (Local Time) from KGOO Reporting Station
Broken Clouds Broken Clouds  
Wind Chill:   Ceiling: 2500
Heat Index:   Visibility: 5mi
Dew Point:   Wind: 7mph
Humidity: 93%   Direction: 130°SE
Pressure: 30.13"   Gusts: NA
Location:  39.2183°N, 120.924°W
Report Text: KGOO 200000Z AUTO 13006KT 5SM FEW015 SCT020 BKN025 06/05 A3013 RMK AO1 P0001
Loading
Personal Weather Stations






























Interactive Weather Map New forecast layout! Learn more

10-Day Weather Forecast

Advertisements
Track Severe Weather on mobile